createdAt,value
2022-11-07T00:01:16.754Z,98206.28
2022-11-07T00:03:43.945Z,98207.09
2022-11-07T00:06:11.403Z,98212.16
2022-11-07T00:08:37.972Z,98221.91
2022-11-07T00:11:05.713Z,98234.53
2022-11-07T00:13:32.633Z,98227.13
2022-11-07T00:16:05.274Z,98228.34
2022-11-07T00:18:32.117Z,98231.84
2022-11-07T00:21:02.783Z,98227.28
2022-11-07T00:23:29.568Z,98236.94
2022-11-07T00:26:08.591Z,98238.09
2022-11-07T00:28:40.617Z,98239.66
2022-11-07T00:31:09.664Z,98250.53
2022-11-07T00:33:36.486Z,98250.19
2022-11-07T00:36:03.607Z,98252.44
2022-11-07T00:38:30.419Z,98244.97
2022-11-07T00:41:01.520Z,98260.56
2022-11-07T00:43:29.366Z,98253.97
2022-11-07T00:45:56.852Z,98265.28
2022-11-07T00:48:23.769Z,98266.56
2022-11-07T00:50:50.510Z,98270.44
2022-11-07T00:53:17.632Z,98271.72
2022-11-07T00:55:44.618Z,98278.69
2022-11-07T00:58:13.914Z,98272.03
2022-11-07T01:00:41.689Z,98277.22
2022-11-07T01:03:37.883Z,98275.22
2022-11-07T01:06:05.034Z,98280.38
2022-11-07T01:08:32.053Z,98283.13
2022-11-07T01:10:59.836Z,98270.66
2022-11-07T01:13:26.720Z,98269.16
2022-11-07T01:15:53.389Z,98268.41
2022-11-07T01:18:19.987Z,98264.13
2022-11-07T01:20:46.906Z,98256.59
2022-11-07T01:23:14.155Z,98266.00
2022-11-07T01:25:41.568Z,98260.13
2022-11-07T01:28:09.618Z,98262.81
2022-11-07T01:30:45.834Z,98260.44
2022-11-07T01:33:13.147Z,98268.97
2022-11-07T01:35:40.776Z,98264.66
2022-11-07T01:38:07.831Z,98249.06
2022-11-07T01:40:54.739Z,98265.50
2022-11-07T01:43:21.391Z,98267.47
2022-11-07T01:45:48.338Z,98266.66
2022-11-07T01:48:14.942Z,98273.59
2022-11-07T01:50:42.188Z,98264.94
2022-11-07T01:53:09.488Z,98263.41
2022-11-07T01:55:36.526Z,98263.88
2022-11-07T01:58:09.147Z,98264.28
2022-11-07T02:00:37.091Z,98268.59
2022-11-07T02:03:16.388Z,98268.97
2022-11-07T02:05:53.866Z,98265.09
2022-11-07T02:08:22.058Z,98270.06
2022-11-07T02:10:49.082Z,98269.28
2022-11-07T02:13:25.563Z,98275.16
2022-11-07T02:15:52.655Z,98264.97
2022-11-07T02:18:19.953Z,98266.66
2022-11-07T02:20:47.341Z,98262.81
2022-11-07T02:23:30.315Z,98267.50
2022-11-07T02:25:56.918Z,98262.84
2022-11-07T02:28:25.716Z,98270.66
2022-11-07T02:30:52.355Z,98268.69
2022-11-07T02:33:23.866Z,98258.19
2022-11-07T02:35:52.535Z,98269.91
2022-11-07T02:38:24.816Z,98251.91
2022-11-07T02:40:55.696Z,98257.81
2022-11-07T02:43:27.164Z,98254.25
2022-11-07T02:45:54.673Z,98253.50
2022-11-07T02:48:21.402Z,98249.63
2022-11-07T02:50:48.199Z,98248.13
2022-11-07T02:53:15.118Z,98247.34
2022-11-07T02:55:41.878Z,98242.44
2022-11-07T02:58:08.507Z,98253.34
2022-11-07T03:00:35.081Z,98251.38
2022-11-07T03:03:01.856Z,98251.78
2022-11-07T03:05:28.497Z,98243.22
2022-11-07T03:07:55.169Z,98254.25
2022-11-07T03:10:21.742Z,98250.75
2022-11-07T03:12:48.328Z,98257.44
2022-11-07T03:15:15.540Z,98248.47
2022-11-07T03:17:42.679Z,98259.41
2022-11-07T03:20:09.951Z,98260.56
2022-11-07T03:22:36.744Z,98259.50
2022-11-07T03:25:03.566Z,98259.09
2022-11-07T03:27:30.220Z,98254.84
2022-11-07T03:29:56.888Z,98255.59
2022-11-07T03:32:23.512Z,98255.69
2022-11-07T03:34:50.134Z,98255.72
2022-11-07T03:37:17.225Z,98257.34
2022-11-07T03:39:43.810Z,98258.94
2022-11-07T03:42:10.349Z,98261.28
2022-11-07T03:44:36.947Z,98263.69
2022-11-07T03:47:03.520Z,98259.41
2022-11-07T03:49:30.140Z,98257.47
2022-11-07T03:51:56.710Z,98263.34
2022-11-07T03:54:23.308Z,98269.19
2022-11-07T03:56:49.895Z,98265.31
2022-11-07T03:59:16.452Z,98268.06
2022-11-07T04:01:43.090Z,98260.63
2022-11-07T04:04:09.757Z,98267.25
2022-11-07T04:06:36.400Z,98271.59
2022-11-07T04:09:03.035Z,98274.72
2022-11-07T04:11:48.236Z,98280.22
2022-11-07T04:14:33.549Z,98277.91
2022-11-07T04:17:18.504Z,98282.59
2022-11-07T04:19:46.359Z,98289.94
2022-11-07T04:22:13.085Z,98298.91
2022-11-07T04:24:45.373Z,98291.94
2022-11-07T04:27:31.877Z,98295.75
2022-11-07T04:29:58.498Z,98296.59
2022-11-07T04:32:25.655Z,98295.75
2022-11-07T04:34:52.564Z,98298.91
2022-11-07T04:37:19.660Z,98302.00
2022-11-07T04:39:46.282Z,98298.16
2022-11-07T04:42:12.912Z,98302.84
2022-11-07T04:44:39.563Z,98295.88
2022-11-07T04:47:06.851Z,98299.00
2022-11-07T04:49:33.462Z,98303.28
2022-11-07T04:52:00.060Z,98309.53
2022-11-07T04:54:26.763Z,98309.50
2022-11-07T04:56:53.365Z,98316.53
2022-11-07T04:59:19.909Z,98312.34
2022-11-07T05:01:46.560Z,98322.44
2022-11-07T05:04:13.246Z,98311.84
2022-11-07T05:06:39.916Z,98313.81
2022-11-07T05:09:06.647Z,98314.97
2022-11-07T05:11:33.263Z,98312.59
2022-11-07T05:13:59.872Z,98313.75
2022-11-07T05:16:26.749Z,98315.75
2022-11-07T05:18:53.303Z,98309.84
2022-11-07T05:23:51.070Z,98316.88
2022-11-07T05:26:18.217Z,98319.25
2022-11-07T05:28:44.782Z,98313.34
2022-11-07T05:31:18.447Z,98319.13
2022-11-07T05:33:45.026Z,98319.16
2022-11-07T05:36:15.708Z,98327.34
2022-11-07T05:38:44.557Z,98319.56
2022-11-07T05:41:11.874Z,98319.94
2022-11-07T05:43:39.403Z,98316.81
2022-11-07T05:46:06.824Z,98319.50
2022-11-07T05:48:33.559Z,98316.72
2022-11-07T05:51:00.638Z,98318.75
2022-11-07T05:53:27.685Z,98323.81
2022-11-07T05:55:55.256Z,98332.38
2022-11-07T05:58:22.160Z,98330.84
2022-11-07T06:00:49.146Z,98330.44
2022-11-07T06:03:16.899Z,98337.19
2022-11-07T06:05:44.341Z,98330.59
2022-11-07T06:08:13.196Z,98335.31
2022-11-07T06:10:41.840Z,98337.63
2022-11-07T06:13:12.313Z,98336.06
2022-11-07T06:15:40.967Z,98341.38
2022-11-07T06:18:11.602Z,98339.22
2022-11-07T06:20:38.278Z,98341.72
2022-11-07T06:23:06.348Z,98337.66
2022-11-07T06:25:33.458Z,98336.03
2022-11-07T06:28:02.488Z,98336.34
2022-11-07T06:30:29.380Z,98342.03
2022-11-07T06:35:31.432Z,98343.13
2022-11-07T06:38:02.569Z,98346.97
2022-11-07T06:40:29.519Z,98349.22
2022-11-07T06:42:56.171Z,98348.00
2022-11-07T06:45:22.816Z,98355.84
2022-11-07T06:47:49.495Z,98352.16
2022-11-07T06:50:16.128Z,98353.44
2022-11-07T06:52:42.698Z,98347.97
2022-11-07T06:55:09.626Z,98354.69
2022-11-07T06:57:36.181Z,98349.53
2022-11-07T07:00:04.801Z,98352.69
2022-11-07T07:02:56.958Z,98353.94
2022-11-07T07:05:21.030Z,98355.91
2022-11-07T07:10:21.664Z,98365.78
2022-11-07T07:12:48.269Z,98364.97
2022-11-07T07:15:14.943Z,98366.56
2022-11-07T07:17:41.546Z,98372.56
2022-11-07T07:20:08.814Z,98372.13
2022-11-07T07:25:07.522Z,98375.38
2022-11-07T07:27:34.141Z,98375.44
2022-11-07T07:30:00.727Z,98384.09
2022-11-07T07:32:27.378Z,98378.63
2022-11-07T07:34:54.375Z,98396.22
2022-11-07T07:37:20.997Z,98386.84
2022-11-07T07:39:47.630Z,98386.94
2022-11-07T07:42:14.226Z,98390.75
2022-11-07T07:44:40.811Z,98381.47
2022-11-07T07:47:11.244Z,98394.69
2022-11-07T07:49:38.390Z,98394.72
2022-11-07T07:52:05.251Z,98396.75
2022-11-07T07:57:04.015Z,98404.66
2022-11-07T07:59:30.617Z,98399.19
2022-11-07T08:07:12.211Z,98401.28
2022-11-07T08:09:38.803Z,98392.78
2022-11-07T08:12:11.395Z,98395.56
2022-11-07T08:14:37.975Z,98397.53
2022-11-07T08:17:04.593Z,98397.94
2022-11-07T08:19:31.245Z,98394.44
2022-11-07T08:21:57.817Z,98402.34
2022-11-07T08:24:24.390Z,98400.03
2022-11-07T08:26:50.951Z,98408.59
2022-11-07T08:29:17.510Z,98407.44
2022-11-07T08:31:44.072Z,98407.81
2022-11-07T08:34:10.715Z,98411.72
2022-11-07T08:36:37.379Z,98415.63
2022-11-07T08:39:03.980Z,98419.53
2022-11-07T08:41:30.557Z,98415.63
2022-11-07T08:43:57.118Z,98414.03
2022-11-07T08:46:23.714Z,98411.28
2022-11-07T08:48:51.011Z,98410.53
2022-11-07T08:51:18.006Z,98413.25
2022-11-07T08:53:44.617Z,98412.16
2022-11-07T08:56:11.409Z,98417.28
2022-11-07T08:58:38.331Z,98406.72
2022-11-07T09:01:07.392Z,98418.50
2022-11-07T09:03:46.112Z,98418.94
2022-11-07T09:06:16.284Z,98410.78
2022-11-07T09:08:42.986Z,98416.28
2022-11-07T09:11:09.895Z,98410.38
2022-11-07T09:13:36.988Z,98413.59
2022-11-07T09:16:04.979Z,98416.75
2022-11-07T09:18:32.513Z,98412.06
2022-11-07T09:20:59.582Z,98416.00
2022-11-07T09:23:26.916Z,98422.31
2022-11-07T09:25:53.523Z,98425.41
2022-11-07T09:28:20.169Z,98425.41
2022-11-07T09:30:46.779Z,98437.22
2022-11-07T09:33:13.754Z,98434.03
2022-11-07T09:35:40.629Z,98430.97
2022-11-07T09:38:07.160Z,98441.50
2022-11-07T09:40:41.883Z,98437.63
2022-11-07T09:43:28.952Z,98446.72
2022-11-07T09:46:09.778Z,98442.78
2022-11-07T09:48:45.527Z,98442.44
2022-11-07T09:51:39.380Z,98442.47
2022-11-07T09:54:28.512Z,98441.25
2022-11-07T09:56:58.178Z,98438.94
2022-11-07T09:59:43.086Z,98446.41
2022-11-07T10:02:22.151Z,98442.88
2022-11-07T10:04:56.180Z,98435.06
2022-11-07T10:07:23.061Z,98430.75
2022-11-07T10:10:04.762Z,98436.66
2022-11-07T10:12:31.269Z,98438.25
2022-11-07T10:15:17.260Z,98438.28
2022-11-07T10:17:59.446Z,98433.97
2022-11-07T10:20:26.063Z,98439.47
2022-11-07T10:23:01.514Z,98443.03
2022-11-07T10:25:44.433Z,98439.88
2022-11-07T10:28:13.571Z,98437.13
2022-11-07T10:30:42.498Z,98434.81
2022-11-07T10:33:34.554Z,98432.09
2022-11-07T10:36:19.046Z,98425.41
2022-11-07T10:38:45.799Z,98425.81
2022-11-07T10:41:23.936Z,98416.81
2022-11-07T10:44:00.477Z,98416.84
2022-11-07T10:46:40.542Z,98417.22
2022-11-07T10:49:19.504Z,98409.03
2022-11-07T10:51:46.800Z,98403.16
2022-11-07T10:54:21.999Z,98413.34
2022-11-07T10:57:03.440Z,98400.81
2022-11-07T10:59:36.206Z,98402.38
2022-11-07T11:02:04.459Z,98398.06
2022-11-07T11:04:33.157Z,98407.13
2022-11-07T11:07:12.026Z,98407.13
2022-11-07T11:09:48.760Z,98404.78
2022-11-07T11:12:16.776Z,98404.00
2022-11-07T11:14:43.378Z,98405.59
2022-11-07T11:17:24.705Z,98395.38
2022-11-07T11:19:53.482Z,98394.22
2022-11-07T11:22:23.706Z,98401.66
2022-11-07T11:25:04.900Z,98402.44
2022-11-07T11:27:34.531Z,98403.59
2022-11-07T11:30:07.543Z,98401.59
2022-11-07T11:32:48.383Z,98408.22
2022-11-07T11:35:41.560Z,98410.56
2022-11-07T11:38:16.337Z,98409.41
2022-11-07T11:40:50.286Z,98410.22
2022-11-07T11:43:29.344Z,98400.78
2022-11-07T11:46:03.849Z,98399.22
2022-11-07T11:48:39.603Z,98406.28
2022-11-07T11:51:22.515Z,98403.56
2022-11-07T11:53:49.312Z,98394.09
2022-11-07T11:56:27.877Z,98392.19
2022-11-07T11:59:42.372Z,98397.72
2022-11-07T12:02:33.832Z,98394.94
2022-11-07T12:05:18.786Z,98390.63
2022-11-07T12:08:09.349Z,98386.31
2022-11-07T12:10:49.123Z,98387.50
2022-11-07T12:13:43.948Z,98386.31
2022-11-07T12:16:23.254Z,98385.16
2022-11-07T12:18:57.990Z,98383.59
2022-11-07T12:21:42.513Z,98386.69
2022-11-07T12:24:30.216Z,98383.56
2022-11-07T12:27:11.940Z,98383.56
2022-11-07T12:30:03.643Z,98367.81
2022-11-07T12:32:49.043Z,98379.63
2022-11-07T12:38:17.017Z,98367.81
2022-11-07T12:40:56.838Z,98374.09
2022-11-07T12:43:37.350Z,98360.72
2022-11-07T12:46:22.375Z,98371.34
2022-11-07T12:48:51.756Z,98371.72
2022-11-07T12:51:26.100Z,98373.28
2022-11-07T12:54:21.902Z,98377.22
2022-11-07T12:56:49.468Z,98369.72
2022-11-07T12:59:23.880Z,98372.47
2022-11-07T13:02:03.076Z,98372.50
2022-11-07T13:04:40.762Z,98378.00
2022-11-07T13:07:15.768Z,98367.81
2022-11-07T13:10:11.067Z,98370.16
2022-11-07T13:12:44.555Z,98362.28
2022-11-07T13:15:13.479Z,98355.91
2022-11-07T13:17:44.986Z,98359.00
2022-11-07T13:20:30.027Z,98367.31
2022-11-07T13:22:59.246Z,98362.97
2022-11-07T13:25:29.793Z,98356.63
2022-11-07T13:27:56.384Z,98350.34
2022-11-07T13:30:35.972Z,98357.38
2022-11-07T13:33:03.195Z,98355.06
2022-11-07T13:35:32.434Z,98352.69
2022-11-07T13:38:08.788Z,98350.38
2022-11-07T13:40:44.691Z,98349.56
2022-11-07T13:43:26.450Z,98351.94
2022-11-07T13:46:02.947Z,98348.78
2022-11-07T13:48:41.536Z,98347.25
2022-11-07T13:51:10.395Z,98353.59
2022-11-07T13:53:47.255Z,98347.34
2022-11-07T13:56:28.954Z,98358.34
2022-11-07T13:58:56.177Z,98352.09
2022-11-07T14:01:23.111Z,98356.78
2022-11-07T14:03:49.795Z,98355.25
2022-11-07T14:06:17.550Z,98352.91
2022-11-07T14:08:47.446Z,98355.28
2022-11-07T14:11:21.125Z,98350.53
2022-11-07T14:13:51.406Z,98349.75
2022-11-07T14:16:21.793Z,98351.34
2022-11-07T14:19:02.313Z,98359.19
2022-11-07T14:21:34.411Z,98364.72
2022-11-07T14:24:01.801Z,98358.41
2022-11-07T14:26:34.320Z,98360.38
2022-11-07T14:29:01.830Z,98360.75
2022-11-07T14:31:31.765Z,98366.25
2022-11-07T14:34:05.027Z,98356.06
2022-11-07T14:36:31.760Z,98359.22
2022-11-07T14:39:08.985Z,98361.97
2022-11-07T14:41:42.046Z,98362.34
2022-11-07T14:44:15.773Z,98356.88
2022-11-07T14:46:42.431Z,98358.44
2022-11-07T14:49:38.197Z,98363.19
2022-11-07T14:52:05.929Z,98360.81
2022-11-07T14:54:40.968Z,98359.25
2022-11-07T14:57:12.187Z,98367.09
2022-11-07T14:59:39.856Z,98362.81
2022-11-07T15:02:12.691Z,98363.56
2022-11-07T15:04:44.994Z,98355.72
2022-11-07T15:07:20.244Z,98360.84
2022-11-07T15:09:46.936Z,98356.91
2022-11-07T15:12:20.672Z,98351.44
2022-11-07T15:15:02.047Z,98355.38
2022-11-07T15:17:29.025Z,98355.38
2022-11-07T15:20:00.731Z,98353.41
2022-11-07T15:22:31.868Z,98355.34
2022-11-07T15:24:58.629Z,98354.53
2022-11-07T15:27:44.365Z,98359.63
2022-11-07T15:30:27.210Z,98353.75
2022-11-07T15:32:53.997Z,98363.19
2022-11-07T15:38:16.787Z,98362.78
2022-11-07T15:40:43.789Z,98360.41
2022-11-07T15:43:10.373Z,98366.28
2022-11-07T15:45:37.321Z,98369.06
2022-11-07T15:48:06.241Z,98369.44
2022-11-07T15:50:34.092Z,98363.94
2022-11-07T15:53:00.663Z,98374.53
2022-11-07T15:55:27.234Z,98369.44
2022-11-07T15:57:54.444Z,98376.13
2022-11-07T16:00:23.985Z,98370.22
2022-11-07T16:02:51.361Z,98367.88
2022-11-07T16:05:18.458Z,98360.00
2022-11-07T16:07:46.007Z,98365.50
2022-11-07T16:10:30.456Z,98360.06
2022-11-07T16:13:00.889Z,98360.47
2022-11-07T16:15:31.083Z,98361.22
2022-11-07T16:17:57.960Z,98363.19
2022-11-07T16:20:24.611Z,98356.50
2022-11-07T16:22:51.514Z,98358.44
2022-11-07T16:25:24.481Z,98356.06
2022-11-07T16:27:53.683Z,98354.53
2022-11-07T16:30:21.207Z,98356.88
2022-11-07T16:32:48.446Z,98357.25
2022-11-07T16:35:15.118Z,98356.88
2022-11-07T16:37:42.894Z,98356.03
2022-11-07T16:40:14.536Z,98352.53
2022-11-07T16:42:41.259Z,98358.41
2022-11-07T16:45:08.431Z,98365.06
2022-11-07T16:47:39.486Z,98360.34
2022-11-07T16:50:06.565Z,98365.03
2022-11-07T16:52:33.395Z,98365.41
2022-11-07T16:55:00.104Z,98374.75
2022-11-07T16:57:26.746Z,98374.75
2022-11-07T16:59:53.362Z,98371.56
2022-11-07T17:02:23.481Z,98374.28
2022-11-07T17:04:53.108Z,98377.03
2022-11-07T17:07:22.794Z,98372.34
2022-11-07T17:09:49.965Z,98372.38
2022-11-07T17:12:20.259Z,98376.22
2022-11-07T17:14:47.408Z,98374.94
2022-11-07T17:17:16.228Z,98383.47
2022-11-07T17:19:43.164Z,98376.41
2022-11-07T17:22:11.629Z,98379.03
2022-11-07T17:27:24.201Z,98367.63
2022-11-07T17:29:51.865Z,98369.13
2022-11-07T17:32:19.059Z,98370.63
2022-11-07T17:34:46.720Z,98368.66
2022-11-07T17:37:20.002Z,98371.84
2022-11-07T17:39:48.283Z,98374.94
2022-11-07T17:42:15.702Z,98381.50
2022-11-07T17:44:42.465Z,98376.78
2022-11-07T17:47:27.272Z,98372.00
2022-11-07T17:49:54.069Z,98375.50
2022-11-07T17:52:20.635Z,98378.50
2022-11-07T17:54:47.299Z,98372.22
2022-11-07T17:59:51.862Z,98380.69
2022-11-07T18:02:19.788Z,98373.91
2022-11-07T18:04:46.881Z,98379.72
2022-11-07T18:07:13.764Z,98378.88
2022-11-07T18:09:40.888Z,98378.97
2022-11-07T18:12:07.853Z,98381.25
2022-11-07T18:14:34.590Z,98374.03
2022-11-07T18:17:01.311Z,98377.16
2022-11-07T18:19:27.923Z,98379.09
2022-11-07T18:21:55.179Z,98370.50
2022-11-07T18:24:22.614Z,98377.97
2022-11-07T18:26:51.336Z,98374.38
2022-11-07T18:29:18.774Z,98378.47
2022-11-07T18:31:47.539Z,98379.13
2022-11-07T18:34:14.694Z,98376.84
2022-11-07T18:36:43.112Z,98371.81
2022-11-07T18:39:16.666Z,98375.34
2022-11-07T18:41:43.771Z,98381.75
2022-11-07T18:44:11.921Z,98372.44
2022-11-07T18:46:39.531Z,98376.72
2022-11-07T18:49:06.894Z,98375.94
2022-11-07T18:51:34.491Z,98370.53
2022-11-07T18:54:03.471Z,98373.22
2022-11-07T18:56:30.409Z,98369.69
2022-11-07T18:58:57.591Z,98368.44
2022-11-07T19:01:28.412Z,98366.03
2022-11-07T19:03:56.544Z,98369.19
2022-11-07T19:06:25.515Z,98375.31
2022-11-07T19:08:52.368Z,98368.31
2022-11-07T19:11:29.437Z,98370.63
2022-11-07T19:13:59.903Z,98363.69
2022-11-07T19:16:26.961Z,98369.16
2022-11-07T19:18:53.654Z,98364.81
2022-11-07T19:21:21.637Z,98370.78
2022-11-07T19:23:50.113Z,98369.53
2022-11-07T19:26:19.092Z,98369.50
2022-11-07T19:28:46.178Z,98367.53
2022-11-07T19:31:13.918Z,98363.53
2022-11-07T19:36:16.503Z,98370.16
2022-11-07T19:38:44.234Z,98375.66
2022-11-07T19:41:11.854Z,98377.22
2022-11-07T19:43:39.279Z,98377.19
2022-11-07T19:46:08.550Z,98383.94
2022-11-07T19:48:35.165Z,98368.25
2022-11-07T19:51:06.614Z,98369.72
2022-11-07T19:53:33.426Z,98367.31
2022-11-07T19:56:08.953Z,98367.31
2022-11-07T19:58:37.229Z,98380.50
2022-11-07T20:01:31.856Z,98380.34
2022-11-07T20:04:00.499Z,98378.38
2022-11-07T20:06:35.830Z,98369.78
2022-11-07T20:11:36.272Z,98365.22
2022-11-07T20:14:03.896Z,98370.25
2022-11-07T20:16:32.449Z,98368.00
2022-11-07T20:18:59.719Z,98372.78
2022-11-07T20:21:26.518Z,98377.78
2022-11-07T20:23:57.518Z,98378.88
2022-11-07T20:26:26.049Z,98392.63
2022-11-07T20:28:53.553Z,98392.88
2022-11-07T20:31:22.959Z,98383.84
2022-11-07T20:33:50.152Z,98386.97
2022-11-07T20:36:17.548Z,98379.59
2022-11-07T20:38:44.632Z,98385.09
2022-11-07T20:41:13.153Z,98392.97
2022-11-07T20:43:40.552Z,98383.13
2022-11-07T20:46:14.706Z,98384.09
2022-11-07T20:48:42.105Z,98382.50
2022-11-07T20:51:10.240Z,98391.53
2022-11-07T20:53:38.622Z,98398.09
2022-11-07T20:56:06.154Z,98394.22
2022-11-07T20:58:37.675Z,98387.91
2022-11-07T21:01:05.927Z,98394.22
2022-11-07T21:03:35.908Z,98391.09
2022-11-07T21:06:03.580Z,98401.28
2022-11-07T21:08:34.481Z,98397.25
2022-11-07T21:11:03.828Z,98401.59
2022-11-07T21:13:30.373Z,98399.88
2022-11-07T21:15:56.940Z,98401.66
2022-11-07T21:18:24.547Z,98396.09
2022-11-07T21:20:51.176Z,98403.06
2022-11-07T21:23:18.235Z,98411.41
2022-11-07T21:25:48.034Z,98410.03
2022-11-07T21:28:17.306Z,98408.91
2022-11-07T21:33:41.394Z,98413.97
2022-11-07T21:36:12.792Z,98409.53
2022-11-07T21:38:39.453Z,98399.25
2022-11-07T21:41:10.225Z,98406.66
2022-11-07T21:43:37.819Z,98403.72
2022-11-07T21:46:11.887Z,98396.75
2022-11-07T21:48:39.265Z,98400.69
2022-11-07T21:51:26.795Z,98402.19
2022-11-07T21:53:53.992Z,98395.97
2022-11-07T21:56:29.099Z,98390.84
2022-11-07T21:59:01.266Z,98389.94
2022-11-07T22:01:29.407Z,98390.06
2022-11-07T22:04:06.666Z,98393.56
2022-11-07T22:06:37.084Z,98390.50
2022-11-07T22:09:04.963Z,98391.28
2022-11-07T22:11:31.563Z,98386.13
2022-11-07T22:13:58.599Z,98374.78
2022-11-07T22:16:25.354Z,98379.16
2022-11-07T22:18:52.080Z,98379.88
2022-11-07T22:21:21.436Z,98364.44
2022-11-07T22:23:48.671Z,98367.06
2022-11-07T22:26:24.197Z,98361.38
2022-11-07T22:28:51.488Z,98357.19
2022-11-07T22:31:21.772Z,98362.53
2022-11-07T22:33:49.119Z,98350.25
2022-11-07T22:36:16.534Z,98345.03
2022-11-07T22:38:43.297Z,98348.03
2022-11-07T22:41:15.527Z,98337.81
2022-11-07T22:43:42.486Z,98338.47
2022-11-07T22:46:13.614Z,98343.91
2022-11-07T22:48:41.539Z,98338.84
2022-11-07T22:51:13.755Z,98333.34
2022-11-07T22:53:41.038Z,98341.69
2022-11-07T22:56:13.526Z,98344.19
2022-11-07T22:58:41.362Z,98337.44
2022-11-07T23:01:16.895Z,98333.69
2022-11-07T23:03:43.588Z,98333.47
2022-11-07T23:06:10.285Z,98330.81
2022-11-07T23:08:37.393Z,98329.75
2022-11-07T23:11:43.441Z,98329.75
2022-11-07T23:14:04.815Z,98337.53
2022-11-07T23:16:38.346Z,98335.13
2022-11-07T23:19:07.731Z,98337.53
2022-11-07T23:21:35.368Z,98333.09
2022-11-07T23:24:02.256Z,98328.97
2022-11-07T23:26:36.348Z,98332.03
2022-11-07T23:29:10.369Z,98318.06
2022-11-07T23:31:38.949Z,98313.72
2022-11-07T23:34:05.589Z,98307.44
2022-11-07T23:36:32.148Z,98316.75
2022-11-07T23:39:04.807Z,98309.72
2022-11-07T23:41:31.657Z,98317.13
2022-11-07T23:43:59.513Z,98319.47
2022-11-07T23:46:45.007Z,98311.66
2022-11-07T23:49:30.532Z,98316.44
2022-11-07T23:51:57.158Z,98317.19
2022-11-07T23:54:42.494Z,98311.91
2022-11-07T23:57:09.093Z,98310.47
2022-11-07T23:59:54.659Z,98315.91
